Time;durP1;ratioP1;P1;durP2;ratioP2;P2;SDS_P1;SDS_P2;PMS_P1;PMS_P2;Temp;Humidity;BMP_temperature;BMP_pressure;BME280_temperature;BME280_humidity;BME280_pressure;Samples;Min_cycle;Max_cycle;Signal;HPM_P1;HPM_P2
2021/07/14 00:04:45;;;;;;;0.70;0.50;;;20.30;99.90;;;;;;4918786;28;20258;-79
2021/07/14 00:07:26;;;;;;;0.70;0.60;;;20.30;99.90;;;;;;4892885;29;20480;-78
2021/07/14 00:10:32;;;;;;;0.70;0.60;;;20.30;99.90;;;;;;4946893;29;20470;-79
2021/07/14 00:22:59;;;;;;;0.70;0.60;;;20.30;99.90;;;;;;4892203;29;20451;-78
2021/07/14 00:25:25;;;;;;;1.33;0.70;;;20.30;99.90;;;;;;4941038;29;20859;-78
2021/07/14 00:27:52;;;;;;;1.17;0.80;;;20.40;99.90;;;;;;4940863;29;20246;-78
2021/07/14 00:30:23;;;;;;;1.90;1.10;;;20.40;99.90;;;;;;4951212;29;20202;-78
2021/07/14 00:32:49;;;;;;;2.50;0.70;;;20.40;99.90;;;;;;4937205;28;20498;-78
2021/07/14 00:35:15;;;;;;;0.73;0.57;;;20.40;99.90;;;;;;4939093;29;20916;-78
2021/07/14 00:37:40;;;;;;;1.43;1.33;;;20.40;99.90;;;;;;4952289;28;20429;-78
2021/07/14 00:40:11;;;;;;;1.00;0.60;;;20.40;99.90;;;;;;4939138;29;20209;-78
2021/07/14 00:42:37;;;;;;;2.10;1.50;;;20.40;99.90;;;;;;4954998;29;20209;-79
2021/07/14 00:45:04;;;;;;;1.57;1.07;;;20.40;99.90;;;;;;4939310;29;20431;-77
2021/07/14 00:47:32;;;;;;;0.80;0.80;;;20.40;99.90;;;;;;4937364;29;20427;-78
2021/07/14 00:49:59;;;;;;;0.70;0.60;;;20.40;99.90;;;;;;4945179;29;20460;-78
2021/07/14 00:52:32;;;;;;;1.23;1.13;;;20.40;99.90;;;;;;4950651;28;20465;-78
2021/07/14 00:55:19;;;;;;;1.10;1.00;;;20.40;99.90;;;;;;4961687;28;20429;-78
2021/07/14 00:58:13;;;;;;;0.80;0.60;;;20.30;99.90;;;;;;4953382;28;20458;-79
2021/07/14 01:05:08;;;;;;;1.10;0.70;;;20.30;99.90;;;;;;4943314;29;20428;-78
2021/07/14 01:08:46;;;;;;;0.70;0.50;;;20.20;99.90;;;;;;4889586;29;20672;-79
2021/07/14 01:11:28;;;;;;;1.00;0.90;;;20.20;99.90;;;;;;4896253;29;22014;-78
2021/07/14 01:14:57;;;;;;;0.70;0.50;;;20.20;99.90;;;;;;4941767;29;20411;-78
2021/07/14 01:18:15;;;;;;;0.97;0.70;;;20.20;99.90;;;;;;4909992;29;20430;-78
2021/07/14 01:21:02;;;;;;;1.10;0.83;;;20.20;99.90;;;;;;4859914;29;20422;-78
2021/07/14 01:23:30;;;;;;;0.90;0.80;;;20.20;99.90;;;;;;4867848;29;20441;-78
2021/07/14 01:26:24;;;;;;;0.70;0.60;;;20.20;99.90;;;;;;4919434;29;20430;-78
2021/07/14 01:28:55;;;;;;;1.33;1.20;;;20.20;99.90;;;;;;4957643;29;20545;-79
2021/07/14 01:31:22;;;;;;;0.70;0.57;;;20.10;99.90;;;;;;4938755;29;20446;-77
2021/07/14 01:33:54;;;;;;;0.70;0.50;;;20.10;99.90;;;;;;4950844;29;20458;-78
2021/07/14 01:36:22;;;;;;;1.33;1.23;;;20.20;99.90;;;;;;4937463;29;20458;-78
2021/07/14 01:38:48;;;;;;;2.90;0.80;;;20.20;99.90;;;;;;4934548;29;20433;-78
2021/07/14 01:41:15;;;;;;;0.90;0.70;;;20.20;99.90;;;;;;4938042;29;20443;-78
2021/07/14 01:43:46;;;;;;;2.70;0.70;;;20.20;99.90;;;;;;4938102;29;20430;-79
2021/07/14 01:46:13;;;;;;;0.70;0.60;;;20.20;99.90;;;;;;4940261;29;20425;-79
2021/07/14 01:48:42;;;;;;;0.70;0.60;;;20.20;99.90;;;;;;4950760;29;20434;-78
2021/07/14 01:51:08;;;;;;;0.80;0.60;;;20.20;99.90;;;;;;4952781;29;20505;-78
2021/07/14 01:53:36;;;;;;;1.33;0.90;;;20.10;99.90;;;;;;4946940;29;20425;-78
2021/07/14 01:56:05;;;;;;;1.30;1.20;;;20.10;99.90;;;;;;4935181;29;20489;-78
2021/07/14 01:58:33;;;;;;;0.70;0.50;;;20.10;99.90;;;;;;4955283;28;20436;-78
2021/07/14 02:00:59;;;;;;;1.37;0.60;;;20.10;99.90;;;;;;4943260;29;20496;-78
2021/07/14 02:06:01;;;;;;;1.17;1.07;;;20.00;99.90;;;;;;4949649;29;20182;-79
2021/07/14 02:08:28;;;;;;;0.90;0.70;;;20.00;99.90;;;;;;4957443;29;20517;-78
2021/07/14 02:10:56;;;;;;;0.80;0.60;;;19.80;99.90;;;;;;4944852;29;20512;-79
2021/07/14 02:13:24;;;;;;;0.80;0.60;;;19.80;99.90;;;;;;4959927;29;20538;-79
2021/07/14 02:15:59;;;;;;;0.70;0.60;;;19.70;99.90;;;;;;4950777;29;20434;-78
2021/07/14 02:18:29;;;;;;;0.90;0.70;;;19.70;99.90;;;;;;4940091;29;20504;-78
2021/07/14 02:20:57;;;;;;;0.80;0.60;;;19.70;99.90;;;;;;4954404;29;20476;-78
2021/07/14 02:23:23;;;;;;;1.00;0.70;;;19.60;99.90;;;;;;4953468;28;20453;-79
2021/07/14 02:25:48;;;;;;;0.70;0.50;;;19.60;99.90;;;;;;4941991;29;20465;-78
2021/07/14 02:28:14;;;;;;;0.70;0.60;;;19.60;99.90;;;;;;4940854;29;20183;-79
2021/07/14 02:30:40;;;;;;;0.70;0.60;;;19.60;99.90;;;;;;4942499;29;20598;-79
2021/07/14 02:33:08;;;;;;;0.80;0.70;;;19.50;99.90;;;;;;4952483;29;20621;-79
2021/07/14 02:35:38;;;;;;;0.70;0.60;;;19.60;99.90;;;;;;4957278;29;20779;-78
2021/07/14 02:38:15;;;;;;;1.27;0.70;;;19.70;99.90;;;;;;4940140;29;20943;-78
2021/07/14 02:40:51;;;;;;;0.80;0.60;;;19.70;99.90;;;;;;4935583;29;20773;-78
2021/07/14 02:43:21;;;;;;;0.70;0.50;;;19.70;99.90;;;;;;4942034;29;20422;-78
2021/07/14 02:45:48;;;;;;;0.70;0.50;;;19.70;99.90;;;;;;4939659;29;20423;-78
2021/07/14 02:48:14;;;;;;;0.80;0.60;;;19.80;99.90;;;;;;4957777;29;20423;-78
2021/07/14 02:50:41;;;;;;;4.47;1.60;;;19.80;99.90;;;;;;4952046;28;20464;-79
2021/07/14 02:53:12;;;;;;;0.70;0.50;;;19.80;99.90;;;;;;4938910;29;20433;-79
2021/07/14 02:55:40;;;;;;;0.70;0.50;;;19.70;99.90;;;;;;4940364;29;20793;-78
2021/07/14 02:58:07;;;;;;;0.70;0.60;;;19.70;99.90;;;;;;4944586;29;20456;-78
2021/07/14 03:00:55;;;;;;;0.70;0.60;;;19.70;99.90;;;;;;4953673;28;20431;-78
2021/07/14 03:03:24;;;;;;;0.70;0.50;;;19.70;99.90;;;;;;4947755;29;20447;-78
2021/07/14 03:06:00;;;;;;;0.70;0.60;;;19.70;99.90;;;;;;4939035;29;20481;-78
2021/07/14 03:08:28;;;;;;;0.70;0.70;;;19.80;99.90;;;;;;4924462;29;20175;-78
2021/07/14 03:10:55;;;;;;;0.70;0.50;;;19.80;99.90;;;;;;4939822;29;20877;-79
2021/07/14 03:13:23;;;;;;;0.70;0.50;;;19.80;99.90;;;;;;4950493;29;20429;-78
2021/07/14 03:15:50;;;;;;;0.70;0.50;;;19.80;99.90;;;;;;4954236;28;20423;-79
2021/07/14 03:18:19;;;;;;;0.80;0.60;;;19.80;99.90;;;;;;4944187;29;20430;-77
2021/07/14 03:20:46;;;;;;;0.70;0.57;;;19.80;99.90;;;;;;4942435;29;20842;-78
2021/07/14 03:23:14;;;;;;;0.70;0.60;;;19.80;99.90;;;;;;4949164;29;20529;-79
2021/07/14 03:25:42;;;;;;;0.77;0.60;;;19.80;99.90;;;;;;4945842;29;20517;-79
2021/07/14 03:28:30;;;;;;;0.70;0.50;;;19.80;99.90;;;;;;4944649;29;20488;-80
2021/07/14 03:34:25;;;;;;;0.70;0.60;;;19.80;99.90;;;;;;4943780;29;20447;-79
2021/07/14 03:36:51;;;;;;;1.10;0.70;;;19.80;99.90;;;;;;4952300;28;20418;-79
2021/07/14 03:39:17;;;;;;;0.70;0.50;;;19.80;99.90;;;;;;4947970;28;20649;-79
2021/07/14 03:41:43;;;;;;;0.70;0.50;;;19.80;99.90;;;;;;4940232;29;20195;-79
2021/07/14 03:44:12;;;;;;;0.90;0.73;;;19.80;99.90;;;;;;4940006;29;20422;-79
2021/07/14 03:46:38;;;;;;;0.70;0.60;;;19.80;99.90;;;;;;4938579;29;20451;-78
2021/07/14 03:49:05;;;;;;;0.70;0.60;;;19.80;99.90;;;;;;4940324;29;20470;-80
2021/07/14 03:51:31;;;;;;;0.70;0.50;;;19.80;99.90;;;;;;4938198;29;20861;-78
2021/07/14 03:53:58;;;;;;;1.23;0.97;;;19.80;99.90;;;;;;4938460;29;20490;-80
2021/07/14 03:56:24;;;;;;;0.80;0.60;;;19.80;99.90;;;;;;4938811;29;20781;-79
2021/07/14 03:58:52;;;;;;;0.83;0.70;;;19.80;99.90;;;;;;4946048;29;20434;-80
2021/07/14 04:01:18;;;;;;;0.70;0.50;;;19.80;99.90;;;;;;4940968;29;20442;-79
2021/07/14 04:03:52;;;;;;;0.70;0.60;;;19.80;99.90;;;;;;4946364;28;20566;-80
2021/07/14 04:06:21;;;;;;;0.80;0.70;;;19.80;99.90;;;;;;4942853;29;20431;-78
2021/07/14 04:09:09;;;;;;;0.80;0.60;;;19.80;99.90;;;;;;4945292;29;20426;-79
2021/07/14 04:11:35;;;;;;;0.70;0.50;;;19.80;99.90;;;;;;4956247;29;20449;-79
2021/07/14 04:14:42;;;;;;;0.70;0.60;;;19.80;99.90;;;;;;4958011;28;20498;-79
2021/07/14 04:17:37;;;;;;;13.53;1.83;;;19.80;99.90;;;;;;4936576;29;20431;-80
2021/07/14 04:20:03;;;;;;;0.70;0.50;;;19.80;99.90;;;;;;4937912;29;20505;-78
2021/07/14 04:22:29;;;;;;;0.80;0.60;;;19.80;99.90;;;;;;4938651;29;20462;-80
2021/07/14 04:24:54;;;;;;;0.70;0.60;;;19.80;99.90;;;;;;4938529;29;21165;-78
2021/07/14 04:27:20;;;;;;;0.70;0.60;;;19.70;99.90;;;;;;4939541;29;20179;-80
2021/07/14 04:29:45;;;;;;;0.83;0.67;;;19.80;99.90;;;;;;4933083;29;20263;-79
2021/07/14 04:32:11;;;;;;;0.70;0.57;;;19.80;99.90;;;;;;4928644;29;20246;-79
2021/07/14 04:34:36;;;;;;;0.70;0.60;;;19.70;99.90;;;;;;4937786;28;20234;-79
2021/07/14 04:37:02;;;;;;;0.70;0.60;;;19.70;99.90;;;;;;4938854;29;20177;-78
2021/07/14 04:39:28;;;;;;;0.70;0.60;;;19.80;99.90;;;;;;4954277;28;20179;-79
2021/07/14 04:41:53;;;;;;;0.70;0.50;;;19.70;99.90;;;;;;4939519;29;20442;-78
2021/07/14 04:44:38;;;;;;;0.97;0.73;;;19.80;99.90;;;;;;4938157;29;20186;-78
2021/07/14 04:47:04;;;;;;;0.70;0.50;;;19.80;99.90;;;;;;4929834;29;20637;-77
2021/07/14 04:49:30;;;;;;;0.80;0.67;;;19.80;99.90;;;;;;4935851;29;20462;-77
2021/07/14 04:51:56;;;;;;;1.07;0.90;;;19.80;99.90;;;;;;4933098;29;20346;-77
2021/07/14 04:54:21;;;;;;;0.80;0.70;;;19.80;99.90;;;;;;4937159;29;20419;-79
2021/07/14 04:56:49;;;;;;;0.70;0.50;;;19.90;99.90;;;;;;4939238;29;20242;-78
2021/07/14 04:59:16;;;;;;;0.80;0.63;;;19.80;99.90;;;;;;4938677;29;20180;-78
2021/07/14 05:01:42;;;;;;;0.70;0.60;;;19.80;99.90;;;;;;4937851;29;20515;-78
2021/07/14 05:04:07;;;;;;;0.80;0.73;;;19.80;99.90;;;;;;4933421;29;20427;-78
2021/07/14 05:06:33;;;;;;;1.07;0.70;;;19.80;99.90;;;;;;4938992;29;20683;-78
2021/07/14 05:08:58;;;;;;;0.80;0.60;;;19.80;99.90;;;;;;4941040;29;20210;-78
2021/07/14 05:11:24;;;;;;;1.93;1.17;;;19.90;99.90;;;;;;4942770;29;20226;-79
2021/07/14 05:13:51;;;;;;;0.90;0.80;;;19.80;99.90;;;;;;4940870;29;20183;-79
2021/07/14 05:19:38;;;;;;;0.80;0.70;;;19.90;99.90;;;;;;4939323;29;20721;-79
2021/07/14 05:22:04;;;;;;;0.80;0.80;;;19.90;99.90;;;;;;4938675;29;20828;-78
2021/07/14 05:24:30;;;;;;;1.60;0.80;;;19.90;99.90;;;;;;4943682;29;20632;-78
2021/07/14 05:26:55;;;;;;;0.70;0.60;;;19.90;99.90;;;;;;4954508;28;20179;-78
2021/07/14 05:29:21;;;;;;;1.20;0.80;;;19.90;99.90;;;;;;4940177;29;20804;-79
2021/07/14 05:31:46;;;;;;;1.67;0.67;;;20.00;99.90;;;;;;4953528;28;20190;-79
2021/07/14 05:34:12;;;;;;;0.70;0.50;;;20.00;99.90;;;;;;4945694;29;20183;-79
2021/07/14 05:36:38;;;;;;;2.00;1.17;;;20.00;99.90;;;;;;4962750;29;20189;-78
2021/07/14 05:39:04;;;;;;;1.50;1.10;;;20.00;99.90;;;;;;4960172;28;20178;-78
2021/07/14 05:41:30;;;;;;;0.80;0.60;;;20.00;99.90;;;;;;4952282;29;20262;-78
2021/07/14 05:43:55;;;;;;;0.70;0.50;;;19.90;99.90;;;;;;4950651;29;20450;-79
2021/07/14 05:46:21;;;;;;;0.80;0.70;;;19.90;99.90;;;;;;4954437;29;20185;-79
2021/07/14 05:48:48;;;;;;;0.90;0.70;;;20.00;99.90;;;;;;4941289;29;20211;-79
2021/07/14 05:51:14;;;;;;;2.77;1.10;;;20.00;99.90;;;;;;4955414;29;20450;-79
2021/07/14 05:53:39;;;;;;;0.80;0.80;;;20.00;99.90;;;;;;4960988;28;20436;-79
2021/07/14 05:56:05;;;;;;;0.80;0.60;;;20.00;99.90;;;;;;4948999;29;20236;-79
2021/07/14 05:58:31;;;;;;;3.20;1.60;;;20.00;99.90;;;;;;4945161;29;20191;-79
2021/07/14 06:00:56;;;;;;;0.90;0.70;;;20.00;99.90;;;;;;4945728;29;20209;-77
2021/07/14 06:03:22;;;;;;;0.70;0.60;;;20.00;99.90;;;;;;4943437;29;20211;-78
2021/07/14 06:05:48;;;;;;;1.67;0.90;;;20.00;99.90;;;;;;4943107;29;20230;-79
2021/07/14 06:08:14;;;;;;;4.40;0.77;;;20.10;99.90;;;;;;4939983;29;20182;-78
2021/07/14 06:10:39;;;;;;;1.60;1.50;;;20.00;99.90;;;;;;4953094;29;20457;-78
2021/07/14 06:13:05;;;;;;;1.23;1.00;;;20.10;99.90;;;;;;4944266;28;20183;-78
2021/07/14 06:15:30;;;;;;;1.00;0.80;;;20.10;99.90;;;;;;4936658;29;20176;-78
2021/07/14 06:17:57;;;;;;;1.07;0.97;;;20.10;99.90;;;;;;4939389;29;20546;-78
2021/07/14 06:20:23;;;;;;;4.40;1.70;;;20.20;99.90;;;;;;4957065;29;20190;-77
2021/07/14 06:22:49;;;;;;;1.17;0.87;;;20.10;99.90;;;;;;4941261;28;20489;-78
2021/07/14 06:25:15;;;;;;;1.47;1.37;;;20.10;99.90;;;;;;4939159;29;20431;-78
2021/07/14 06:27:42;;;;;;;0.97;0.87;;;20.10;99.90;;;;;;4940787;29;20191;-78
2021/07/14 06:30:09;;;;;;;0.77;0.60;;;20.10;99.90;;;;;;4939647;29;20470;-78
2021/07/14 06:32:39;;;;;;;1.83;1.73;;;20.20;99.90;;;;;;4939425;29;20461;-78
2021/07/14 06:35:07;;;;;;;2.97;2.77;;;20.20;99.90;;;;;;4937150;29;20426;-77
2021/07/14 06:37:34;;;;;;;1.93;1.57;;;20.20;99.90;;;;;;4938299;29;20932;-78
2021/07/14 06:40:00;;;;;;;0.70;0.70;;;20.20;99.90;;;;;;4939988;29;20415;-79
2021/07/14 06:42:30;;;;;;;2.13;1.10;;;20.10;99.90;;;;;;4940578;29;20464;-80
2021/07/14 06:44:56;;;;;;;0.90;0.80;;;20.00;99.90;;;;;;4938877;29;20469;-80
2021/07/14 06:47:21;;;;;;;2.80;1.63;;;20.00;99.90;;;;;;4931678;29;20431;-80
2021/07/14 06:49:47;;;;;;;0.90;0.77;;;20.00;99.90;;;;;;4940644;29;20261;-80
2021/07/14 06:52:13;;;;;;;0.70;0.60;;;20.00;99.90;;;;;;4939857;29;20194;-80
2021/07/14 06:54:38;;;;;;;6.40;2.17;;;20.00;99.90;;;;;;4939599;29;20214;-80
2021/07/14 06:57:05;;;;;;;1.13;1.03;;;20.00;99.90;;;;;;4940397;29;20207;-79
2021/07/14 06:59:31;;;;;;;2.03;1.93;;;20.00;99.90;;;;;;4938711;29;20194;-80
2021/07/14 07:01:57;;;;;;;2.53;2.10;;;20.00;99.90;;;;;;4938988;29;20763;-80
2021/07/14 07:04:23;;;;;;;2.00;1.00;;;20.00;99.90;;;;;;4950887;29;20835;-80
2021/07/14 07:06:48;;;;;;;0.70;0.50;;;20.10;99.90;;;;;;4949278;28;20445;-80
2021/07/14 07:09:15;;;;;;;0.73;0.67;;;20.10;99.90;;;;;;4938455;29;20258;-80
2021/07/14 07:11:41;;;;;;;1.43;1.33;;;20.00;99.90;;;;;;4940969;29;20191;-80
2021/07/14 07:14:06;;;;;;;1.30;1.20;;;20.00;99.90;;;;;;4941745;29;21018;-79
2021/07/14 07:16:32;;;;;;;0.80;0.70;;;20.00;99.90;;;;;;4941188;29;20175;-80
2021/07/14 07:18:58;;;;;;;1.37;1.03;;;20.00;99.90;;;;;;4942211;29;20171;-80
2021/07/14 07:21:25;;;;;;;0.70;0.70;;;20.00;99.90;;;;;;4938218;29;20206;-80
2021/07/14 07:23:51;;;;;;;0.80;0.80;;;19.90;99.90;;;;;;4939079;29;20191;-80
2021/07/14 07:26:17;;;;;;;0.77;0.57;;;19.90;99.90;;;;;;4945275;29;20418;-80
2021/07/14 07:28:42;;;;;;;1.77;1.63;;;19.90;99.90;;;;;;4943630;29;20711;-81
2021/07/14 07:31:09;;;;;;;1.13;0.73;;;19.80;99.90;;;;;;4939435;29;20242;-79
2021/07/14 07:33:36;;;;;;;1.10;1.00;;;19.80;99.90;;;;;;4942400;29;20175;-79
2021/07/14 07:36:03;;;;;;;0.80;0.77;;;19.80;99.90;;;;;;4939589;29;20441;-80
2021/07/14 07:38:29;;;;;;;1.37;1.03;;;19.80;99.90;;;;;;4939329;29;20422;-80
2021/07/14 07:40:57;;;;;;;0.70;0.70;;;19.80;99.90;;;;;;4940582;29;20441;-80
2021/07/14 07:43:24;;;;;;;1.27;0.77;;;19.90;99.90;;;;;;4927194;29;20421;-80
2021/07/14 07:45:50;;;;;;;1.10;1.00;;;19.80;99.90;;;;;;4951966;29;20422;-79
2021/07/14 07:48:16;;;;;;;0.80;0.73;;;19.80;99.90;;;;;;4946812;28;20550;-80
2021/07/14 07:50:41;;;;;;;2.77;2.57;;;19.70;99.90;;;;;;4944926;29;20206;-80
2021/07/14 07:53:07;;;;;;;0.90;0.70;;;19.70;99.90;;;;;;4955655;29;20179;-79
2021/07/14 07:55:32;;;;;;;0.90;0.90;;;19.80;99.90;;;;;;4937414;29;20661;-79
2021/07/14 07:57:58;;;;;;;0.80;0.80;;;19.70;99.90;;;;;;4936834;29;20183;-80
2021/07/14 08:00:23;;;;;;;2.13;2.03;;;19.70;99.90;;;;;;4931871;29;20258;-77
2021/07/14 08:02:49;;;;;;;1.70;1.60;;;19.70;99.90;;;;;;4939513;29;20206;-79
2021/07/14 08:05:15;;;;;;;0.70;0.50;;;19.80;99.90;;;;;;4946010;29;20179;-79
2021/07/14 08:07:41;;;;;;;2.90;2.70;;;19.80;99.90;;;;;;4936969;29;20179;-80
2021/07/14 08:10:07;;;;;;;1.13;1.03;;;19.80;99.90;;;;;;4938093;29;21005;-77
2021/07/14 08:12:33;;;;;;;0.70;0.50;;;19.70;99.90;;;;;;4937397;29;20254;-78
2021/07/14 08:14:59;;;;;;;0.87;0.80;;;19.80;99.90;;;;;;4932670;29;20522;-78
2021/07/14 08:17:24;;;;;;;1.33;1.10;;;19.80;99.90;;;;;;4937065;29;20167;-78
2021/07/14 08:19:51;;;;;;;2.20;1.53;;;19.80;99.90;;;;;;4938514;29;20249;-78
2021/07/14 08:22:17;;;;;;;0.90;0.90;;;19.80;99.90;;;;;;4935641;29;20719;-79
2021/07/14 08:24:43;;;;;;;1.63;1.00;;;19.80;99.90;;;;;;4937108;29;20434;-79
2021/07/14 08:27:09;;;;;;;1.30;1.20;;;19.90;99.90;;;;;;4936178;29;20183;-78
2021/07/14 08:29:34;;;;;;;1.27;0.70;;;20.00;99.90;;;;;;4935809;29;20568;-79
2021/07/14 08:32:00;;;;;;;2.70;1.00;;;20.00;99.90;;;;;;4936243;29;20195;-78
2021/07/14 08:34:25;;;;;;;1.47;0.90;;;20.10;99.90;;;;;;4935382;29;20187;-79
2021/07/14 08:36:51;;;;;;;2.23;2.10;;;20.10;99.90;;;;;;4946660;29;20599;-79
2021/07/14 08:39:16;;;;;;;2.53;0.60;;;20.10;99.90;;;;;;4933764;29;20259;-78
2021/07/14 08:41:44;;;;;;;0.90;0.70;;;20.20;99.90;;;;;;4934287;29;20206;-79
2021/07/14 08:44:13;;;;;;;2.40;1.00;;;20.20;99.90;;;;;;4940166;29;20214;-79
2021/07/14 08:46:40;;;;;;;0.70;0.70;;;20.20;99.90;;;;;;4949069;29;20517;-78
2021/07/14 08:49:06;;;;;;;3.03;2.53;;;20.20;99.90;;;;;;4937203;28;20474;-79
2021/07/14 08:51:34;;;;;;;1.53;1.03;;;20.30;99.90;;;;;;4951496;28;20564;-78
2021/07/14 08:54:00;;;;;;;1.30;1.00;;;20.30;99.90;;;;;;4939865;29;20675;-79
2021/07/14 08:56:27;;;;;;;3.83;1.00;;;20.30;99.90;;;;;;4945763;29;20500;-78
2021/07/14 08:58:52;;;;;;;2.30;0.80;;;20.30;99.90;;;;;;4936006;29;20443;-79
2021/07/14 09:01:22;;;;;;;0.77;0.70;;;20.20;99.90;;;;;;4931442;29;20455;-79
2021/07/14 09:03:49;;;;;;;0.80;0.70;;;20.30;99.90;;;;;;4947996;29;20269;-79
2021/07/14 09:06:14;;;;;;;1.30;0.87;;;20.30;99.90;;;;;;4932082;29;20435;-79
2021/07/14 09:08:40;;;;;;;1.43;1.33;;;20.30;99.90;;;;;;4946674;29;20426;-79
2021/07/14 09:11:06;;;;;;;1.00;0.90;;;20.30;99.90;;;;;;4942759;29;20214;-78
2021/07/14 09:13:52;;;;;;;1.10;1.00;;;20.30;99.90;;;;;;4960938;28;20218;-80
2021/07/14 09:16:35;;;;;;;0.80;0.60;;;20.20;99.90;;;;;;4950256;29;20803;-79
2021/07/14 09:19:13;;;;;;;0.70;0.60;;;20.20;99.90;;;;;;4946098;29;20430;-79
2021/07/14 09:21:42;;;;;;;1.53;1.43;;;20.20;99.90;;;;;;4937372;29;20446;-79
2021/07/14 09:24:33;;;;;;;0.70;0.50;;;20.10;99.90;;;;;;4947537;29;20498;-79
2021/07/14 09:27:02;;;;;;;0.93;0.60;;;20.20;99.90;;;;;;4961471;28;20445;-79
2021/07/14 09:29:29;;;;;;;0.90;0.70;;;20.20;99.90;;;;;;4940592;28;20455;-79
2021/07/14 09:31:56;;;;;;;1.10;0.80;;;20.10;99.90;;;;;;4939180;29;20454;-79
2021/07/14 09:34:49;;;;;;;1.20;1.10;;;20.10;99.90;;;;;;4945633;29;20419;-79
2021/07/14 09:40:59;;;;;;;0.77;0.73;;;20.00;99.90;;;;;;4953979;29;20437;-79
2021/07/14 09:43:45;;;;;;;1.87;1.77;;;19.90;99.90;;;;;;4943400;29;20446;-79
2021/07/14 09:46:31;;;;;;;1.43;0.80;;;19.90;99.90;;;;;;4964808;28;20433;-79
2021/07/14 09:48:57;;;;;;;1.43;0.67;;;19.90;99.90;;;;;;4948796;29;20444;-79
2021/07/14 09:51:23;;;;;;;0.80;0.60;;;19.90;99.90;;;;;;4942711;29;20195;-78
2021/07/14 09:54:01;;;;;;;1.50;1.13;;;19.80;99.90;;;;;;4954049;29;20675;-80
2021/07/14 09:56:28;;;;;;;1.73;1.33;;;19.90;99.90;;;;;;4957930;29;20441;-80
2021/07/14 09:59:11;;;;;;;0.70;0.50;;;19.80;99.90;;;;;;4942944;29;20928;-80
2021/07/14 10:01:48;;;;;;;1.77;0.80;;;19.80;99.90;;;;;;4936071;29;20454;-80
2021/07/14 10:04:36;;;;;;;1.00;0.60;;;19.90;99.90;;;;;;4943175;29;20484;-80
2021/07/14 10:07:24;;;;;;;1.30;0.80;;;19.90;99.90;;;;;;4944599;29;20836;-79
2021/07/14 10:09:50;;;;;;;0.70;0.50;;;19.90;99.90;;;;;;4953737;29;20516;-79
2021/07/14 10:12:27;;;;;;;0.80;0.60;;;19.90;99.90;;;;;;4955282;28;20987;-79
2021/07/14 10:14:53;;;;;;;0.70;0.60;;;19.90;99.90;;;;;;4940731;29;20198;-79
2021/07/14 10:17:46;;;;;;;0.70;0.50;;;20.00;99.90;;;;;;4955554;28;20446;-80
2021/07/14 10:20:21;;;;;;;1.00;0.70;;;20.10;99.90;;;;;;4941255;29;20721;-80
2021/07/14 10:22:54;;;;;;;0.70;0.60;;;20.10;99.90;;;;;;4943215;29;20469;-80
2021/07/14 10:25:20;;;;;;;0.70;0.50;;;20.10;99.90;;;;;;4944104;29;20505;-80
2021/07/14 10:27:47;;;;;;;0.80;0.60;;;20.10;99.90;;;;;;4945013;29;20439;-79
2021/07/14 10:30:17;;;;;;;0.70;0.50;;;20.10;99.90;;;;;;4944907;29;20517;-79
2021/07/14 10:32:43;;;;;;;0.90;0.60;;;20.10;99.90;;;;;;4940327;29;20541;-79
2021/07/14 10:35:11;;;;;;;0.70;0.50;;;20.10;99.90;;;;;;4949879;29;20419;-80
2021/07/14 10:37:40;;;;;;;0.70;0.60;;;20.10;99.90;;;;;;4942839;29;20411;-80
2021/07/14 10:40:07;;;;;;;1.07;0.60;;;20.10;99.90;;;;;;4944029;29;20432;-79
2021/07/14 10:42:34;;;;;;;1.00;0.80;;;20.10;99.90;;;;;;4945711;28;20442;-79
2021/07/14 10:45:01;;;;;;;0.70;0.60;;;20.20;99.90;;;;;;4953182;29;20422;-79
2021/07/14 10:47:28;;;;;;;0.80;0.70;;;20.00;99.90;;;;;;4940322;29;20451;-79
2021/07/14 10:49:53;;;;;;;1.53;0.60;;;20.00;99.90;;;;;;4939362;29;20463;-79
2021/07/14 10:52:20;;;;;;;0.90;0.80;;;20.00;99.90;;;;;;4941634;29;20449;-79
2021/07/14 10:54:45;;;;;;;1.13;1.03;;;19.90;99.90;;;;;;4940896;29;20231;-79
2021/07/14 10:57:11;;;;;;;0.83;0.83;;;19.90;99.90;;;;;;4942199;29;20832;-79
2021/07/14 10:59:38;;;;;;;1.40;1.30;;;19.90;99.90;;;;;;4945675;29;20179;-80
2021/07/14 11:02:04;;;;;;;0.70;0.50;;;19.90;99.90;;;;;;4947057;29;20612;-80
2021/07/14 11:04:29;;;;;;;1.53;0.80;;;19.80;99.90;;;;;;4942106;29;20425;-79
2021/07/14 11:07:03;;;;;;;0.80;0.73;;;19.90;99.90;;;;;;4940674;29;20218;-79
2021/07/14 11:13:01;;;;;;;0.80;0.70;;;20.00;99.90;;;;;;4943090;29;20481;-79
2021/07/14 11:15:36;;;;;;;0.80;0.60;;;19.80;99.90;;;;;;4941361;29;20422;-78
2021/07/14 11:18:30;;;;;;;1.10;0.80;;;19.80;99.90;;;;;;4937638;29;20460;-79
2021/07/14 11:21:08;;;;;;;0.80;0.70;;;19.90;99.90;;;;;;4953075;28;20446;-79
2021/07/14 11:23:45;;;;;;;1.83;1.73;;;19.80;99.90;;;;;;4926360;29;20818;-79
2021/07/14 11:26:26;;;;;;;1.80;0.80;;;19.90;99.90;;;;;;4935856;29;20487;-79
2021/07/14 11:29:32;;;;;;;1.73;1.63;;;19.90;99.90;;;;;;4935344;29;20513;-79
2021/07/14 11:32:01;;;;;;;1.07;0.97;;;19.90;99.90;;;;;;4944159;29;20968;-79
2021/07/14 11:34:34;;;;;;;1.40;1.30;;;19.90;99.90;;;;;;4940568;29;20458;-79
2021/07/14 11:37:20;;;;;;;1.50;1.03;;;19.90;99.90;;;;;;4937152;29;20207;-79
2021/07/14 11:39:45;;;;;;;1.03;1.03;;;20.00;99.90;;;;;;4948146;28;20451;-79
2021/07/14 11:42:18;;;;;;;1.30;1.20;;;20.00;99.90;;;;;;4952379;29;20449;-79
2021/07/14 11:44:52;;;;;;;1.37;1.27;;;19.90;99.90;;;;;;4956241;29;20220;-79
2021/07/14 11:47:35;;;;;;;0.70;0.60;;;20.00;99.90;;;;;;4948899;29;20435;-79
2021/07/14 11:50:02;;;;;;;1.27;1.10;;;19.90;99.90;;;;;;4950204;28;20461;-79
2021/07/14 11:52:45;;;;;;;1.57;1.07;;;20.00;99.90;;;;;;4939451;29;20474;-79
2021/07/14 11:55:22;;;;;;;1.10;0.97;;;19.90;99.90;;;;;;4938663;29;20422;-79
2021/07/14 11:57:49;;;;;;;1.47;1.00;;;19.90;99.90;;;;;;4947115;29;20429;-79
2021/07/14 12:00:16;;;;;;;1.27;0.70;;;19.90;99.90;;;;;;4941921;29;20439;-78
2021/07/14 12:05:42;;;;;;;1.73;1.63;;;19.90;99.90;;;;;;4953870;28;20418;-79
2021/07/14 12:08:11;;;;;;;1.93;1.80;;;19.80;99.90;;;;;;4920487;29;20435;-79
2021/07/14 12:10:44;;;;;;;3.80;3.50;;;19.80;99.90;;;;;;4941230;29;20453;-78
2021/07/14 12:13:12;;;;;;;1.63;1.50;;;19.90;99.90;;;;;;4937881;29;20432;-79
2021/07/14 12:15:47;;;;;;;1.40;1.30;;;19.90;99.90;;;;;;4937321;29;20427;-78
2021/07/14 12:18:13;;;;;;;2.60;2.20;;;19.90;99.90;;;;;;4944909;29;20982;-77
2021/07/14 12:20:51;;;;;;;1.03;0.93;;;19.90;99.90;;;;;;4937284;29;20514;-78
2021/07/14 12:23:18;;;;;;;3.03;0.90;;;20.00;99.90;;;;;;4936349;29;20191;-77
2021/07/14 12:25:44;;;;;;;1.57;1.50;;;20.00;99.90;;;;;;4934362;29;20434;-77
2021/07/14 12:28:13;;;;;;;3.67;1.50;;;20.00;99.90;;;;;;4934958;29;21013;-77
2021/07/14 12:30:43;;;;;;;1.03;0.80;;;19.90;99.90;;;;;;4941729;29;20199;-77
2021/07/14 12:33:10;;;;;;;0.97;0.87;;;19.90;99.90;;;;;;4941604;29;20426;-77
2021/07/14 12:35:36;;;;;;;2.77;2.67;;;19.80;99.90;;;;;;4949679;28;20433;-77
2021/07/14 12:38:12;;;;;;;1.90;1.80;;;19.80;99.90;;;;;;4939888;29;20513;-77
2021/07/14 12:40:44;;;;;;;1.63;1.53;;;19.80;99.90;;;;;;4936826;28;20183;-78
2021/07/14 12:43:47;;;;;;;1.17;1.00;;;19.90;99.90;;;;;;4941082;29;20838;-78
2021/07/14 12:46:54;;;;;;;2.10;2.00;;;19.80;99.90;;;;;;4955311;28;20423;-78
2021/07/14 12:49:22;;;;;;;0.80;0.80;;;19.80;99.90;;;;;;4927962;29;20462;-78
2021/07/14 12:52:06;;;;;;;1.60;1.50;;;19.90;99.90;;;;;;4939849;29;20811;-78
2021/07/14 12:54:33;;;;;;;1.80;0.97;;;19.80;99.90;;;;;;4938385;29;20510;-77
2021/07/14 12:57:12;;;;;;;1.57;1.43;;;19.90;99.90;;;;;;4934455;29;20498;-77
2021/07/14 12:59:55;;;;;;;0.97;0.97;;;19.80;99.90;;;;;;4930553;29;20439;-77
2021/07/14 13:02:22;;;;;;;1.73;1.63;;;19.80;99.90;;;;;;4926219;29;20451;-77
2021/07/14 13:04:50;;;;;;;1.10;0.90;;;19.80;99.90;;;;;;4935737;29;20433;-77
2021/07/14 13:07:27;;;;;;;4.83;0.97;;;19.90;99.90;;;;;;4935770;29;20502;-77
2021/07/14 13:09:53;;;;;;;1.20;0.97;;;19.90;99.90;;;;;;4935614;29;20543;-77
2021/07/14 13:12:20;;;;;;;1.27;1.17;;;19.80;99.90;;;;;;4934875;29;20802;-78
2021/07/14 13:14:46;;;;;;;1.80;1.43;;;19.80;99.90;;;;;;4933531;29;20928;-78
2021/07/14 13:17:40;;;;;;;0.90;0.70;;;19.70;99.90;;;;;;4927076;29;20825;-78
2021/07/14 13:20:18;;;;;;;1.80;1.70;;;19.70;99.90;;;;;;4925300;29;20509;-78
2021/07/14 13:22:57;;;;;;;0.80;0.80;;;19.70;99.90;;;;;;4935088;29;20578;-77
2021/07/14 13:25:23;;;;;;;2.10;1.97;;;19.70;99.90;;;;;;4935040;29;20505;-77
2021/07/14 13:27:54;;;;;;;2.40;0.90;;;19.70;99.90;;;;;;4934790;29;20589;-78
2021/07/14 13:30:32;;;;;;;3.13;2.13;;;19.70;99.90;;;;;;4935240;29;20655;-77
2021/07/14 13:33:06;;;;;;;2.60;2.40;;;19.70;99.90;;;;;;4935437;29;20418;-77
2021/07/14 13:35:37;;;;;;;1.57;1.47;;;19.60;99.90;;;;;;4931649;29;20490;-77
2021/07/14 13:38:23;;;;;;;2.53;2.33;;;19.70;99.90;;;;;;4950068;28;20447;-78
2021/07/14 13:40:49;;;;;;;4.53;4.20;;;19.60;99.90;;;;;;4940023;29;20833;-78
2021/07/14 13:43:15;;;;;;;5.23;1.87;;;19.60;99.90;;;;;;4937070;29;20431;-77